createdAt,value
2022-09-29T00:00:36.183Z,9.57
2022-09-29T00:03:04.809Z,9.56
2022-09-29T00:05:32.694Z,9.56
2022-09-29T00:08:00.533Z,9.56
2022-09-29T00:10:28.364Z,9.54
2022-09-29T00:12:56.199Z,9.55
2022-09-29T00:15:25.316Z,9.55
2022-09-29T00:18:12.692Z,9.53
2022-09-29T00:20:40.907Z,9.53
2022-09-29T00:23:08.676Z,9.53
2022-09-29T00:25:36.869Z,9.52
2022-09-29T00:28:04.666Z,9.50
2022-09-29T00:30:33.884Z,9.51
2022-09-29T00:33:01.622Z,9.49
2022-09-29T00:35:29.444Z,9.48
2022-09-29T00:37:57.187Z,9.46
2022-09-29T00:40:25.013Z,9.43
2022-09-29T00:42:52.793Z,9.43
2022-09-29T00:45:22.619Z,9.44
2022-09-29T00:48:01.535Z,9.43
2022-09-29T00:50:40.615Z,9.42
2022-09-29T00:53:12.853Z,9.39
2022-09-29T00:55:47.153Z,9.38
2022-09-29T00:58:24.819Z,9.37
2022-09-29T01:00:53.044Z,9.34
2022-09-29T01:03:25.025Z,9.35
2022-09-29T01:05:58.362Z,9.32
2022-09-29T01:08:32.127Z,9.32
2022-09-29T01:11:03.342Z,9.32
2022-09-29T01:13:32.838Z,9.29
2022-09-29T01:16:00.697Z,9.27
2022-09-29T01:18:30.430Z,9.28
2022-09-29T01:21:07.473Z,9.27
2022-09-29T01:24:14.424Z,9.22
2022-09-29T01:27:08.956Z,9.19
2022-09-29T01:30:09.499Z,9.17
2022-09-29T01:33:15.956Z,9.17
2022-09-29T01:35:53.317Z,9.15
2022-09-29T01:38:45.728Z,9.15
2022-09-29T01:41:19.754Z,9.09
2022-09-29T01:43:51.621Z,9.10
2022-09-29T01:46:25.368Z,9.06
2022-09-29T01:48:56.472Z,9.07
2022-09-29T01:51:30.708Z,9.06
2022-09-29T01:54:04.871Z,9.05
2022-09-29T01:56:37.506Z,9.04
2022-09-29T01:59:11.560Z,9.00
2022-09-29T02:01:44.533Z,9.00
2022-09-29T02:04:14.277Z,8.74
2022-09-29T02:06:50.644Z,8.95
2022-09-29T02:09:24.111Z,8.94
2022-09-29T02:11:54.105Z,8.94
2022-09-29T02:14:24.805Z,8.94
2022-09-29T02:16:59.001Z,8.93
2022-09-29T02:19:30.567Z,8.90
2022-09-29T02:22:00.297Z,8.90
2022-09-29T02:24:28.104Z,8.87
2022-09-29T02:26:56.863Z,8.85
2022-09-29T02:29:24.988Z,8.85
2022-09-29T02:31:53.028Z,8.83
2022-09-29T02:34:23.179Z,8.83
2022-09-29T02:36:59.180Z,8.83
2022-09-29T02:39:40.256Z,8.80
2022-09-29T02:42:19.437Z,8.79
2022-09-29T02:45:11.434Z,8.78
2022-09-29T02:47:53.123Z,8.76
2022-09-29T02:50:40.877Z,8.74
2022-09-29T02:53:21.593Z,8.73
2022-09-29T02:55:58.748Z,8.71
2022-09-29T02:58:34.101Z,8.69
2022-09-29T03:01:02.247Z,8.65
2022-09-29T03:03:30.135Z,8.64
2022-09-29T03:05:58.332Z,8.65
2022-09-29T03:08:26.049Z,8.62
2022-09-29T03:10:55.283Z,8.62
2022-09-29T03:13:23.138Z,8.60
2022-09-29T03:15:50.986Z,8.59
2022-09-29T03:18:18.824Z,8.58
2022-09-29T03:20:46.681Z,8.56
2022-09-29T03:23:14.384Z,8.56
2022-09-29T03:25:43.000Z,8.55
2022-09-29T03:28:12.370Z,8.55
2022-09-29T03:30:40.197Z,8.53
2022-09-29T03:33:07.913Z,8.50
2022-09-29T03:35:35.766Z,8.50
2022-09-29T03:38:03.508Z,8.49
2022-09-29T03:40:31.355Z,8.48
2022-09-29T03:42:59.149Z,8.48
2022-09-29T03:45:28.374Z,8.47
2022-09-29T03:47:56.245Z,8.46
2022-09-29T03:50:24.030Z,8.44
2022-09-29T03:52:51.745Z,8.44
2022-09-29T03:55:19.588Z,8.43
2022-09-29T03:57:47.547Z,8.42
2022-09-29T04:00:16.471Z,8.41
2022-09-29T04:02:45.562Z,8.40
2022-09-29T04:05:13.793Z,8.38
2022-09-29T04:07:41.578Z,8.36
2022-09-29T04:10:10.197Z,8.35
2022-09-29T04:12:37.940Z,8.33
2022-09-29T04:15:06.885Z,8.32
2022-09-29T04:17:34.847Z,8.29
2022-09-29T04:20:04.153Z,8.32
2022-09-29T04:22:31.988Z,8.27
2022-09-29T04:24:59.826Z,8.27
2022-09-29T04:27:27.565Z,8.25
2022-09-29T04:29:55.371Z,8.24
2022-09-29T04:32:24.610Z,8.23
2022-09-29T04:34:52.671Z,8.23
2022-09-29T04:37:21.793Z,8.23
2022-09-29T04:39:49.832Z,8.20
2022-09-29T04:42:17.587Z,8.20
2022-09-29T04:44:45.508Z,8.20
2022-09-29T04:47:13.539Z,8.19
2022-09-29T04:49:41.358Z,8.18
2022-09-29T04:52:15.650Z,8.19
2022-09-29T04:54:44.829Z,8.17
2022-09-29T04:57:13.750Z,8.17
2022-09-29T04:59:41.501Z,8.13
2022-09-29T05:02:09.361Z,8.12
2022-09-29T05:04:37.322Z,8.08
2022-09-29T05:07:05.074Z,8.06
2022-09-29T05:09:34.047Z,8.04
2022-09-29T05:12:03.692Z,8.02
2022-09-29T05:14:31.547Z,7.99
2022-09-29T05:17:00.017Z,7.97
2022-09-29T05:19:27.797Z,7.94
2022-09-29T05:21:55.522Z,7.90
2022-09-29T05:24:23.629Z,7.89
2022-09-29T05:26:56.094Z,7.87
2022-09-29T05:29:27.445Z,7.87
2022-09-29T05:31:55.280Z,7.85
2022-09-29T05:34:23.314Z,7.85
2022-09-29T05:36:51.331Z,7.83
2022-09-29T05:39:21.120Z,7.83
2022-09-29T05:41:50.009Z,7.83
2022-09-29T05:44:17.784Z,7.83
2022-09-29T05:46:47.012Z,7.84
2022-09-29T05:49:14.821Z,7.82
2022-09-29T05:51:42.672Z,7.82
2022-09-29T05:54:10.601Z,7.81
2022-09-29T05:56:40.774Z,7.81
2022-09-29T05:59:12.376Z,7.80
2022-09-29T06:01:40.283Z,7.80
2022-09-29T06:04:09.507Z,7.82
2022-09-29T06:06:40.032Z,7.79
2022-09-29T06:09:08.500Z,7.80
2022-09-29T06:11:36.322Z,7.80
2022-09-29T06:14:04.176Z,7.80
2022-09-29T06:16:33.968Z,7.81
2022-09-29T06:19:02.522Z,7.80
2022-09-29T06:21:33.956Z,7.82
2022-09-29T06:24:02.484Z,7.80
2022-09-29T06:26:31.170Z,7.80
2022-09-29T06:28:59.524Z,7.81
2022-09-29T06:31:29.279Z,7.85
2022-09-29T06:33:58.856Z,7.88
2022-09-29T06:36:47.308Z,7.96
2022-09-29T06:39:18.522Z,8.05
2022-09-29T06:41:52.118Z,8.19
2022-09-29T06:44:20.249Z,8.38
2022-09-29T06:46:48.616Z,8.60
2022-09-29T06:49:16.802Z,8.85
2022-09-29T06:51:46.493Z,9.15
2022-09-29T06:54:18.080Z,9.47
2022-09-29T06:56:48.382Z,9.81
2022-09-29T06:59:18.348Z,10.15
2022-09-29T07:01:50.856Z,10.50
2022-09-29T07:04:20.276Z,10.85
2022-09-29T07:06:48.308Z,11.22
2022-09-29T07:09:18.095Z,11.56
2022-09-29T07:11:47.209Z,11.89
2022-09-29T07:14:15.139Z,12.20
2022-09-29T07:16:43.298Z,12.50
2022-09-29T07:19:11.633Z,12.79
2022-09-29T07:21:39.405Z,13.05
2022-09-29T07:24:07.421Z,13.33
2022-09-29T07:26:37.440Z,13.60
2022-09-29T07:29:05.368Z,13.80
2022-09-29T07:31:43.874Z,14.00
2022-09-29T07:34:16.228Z,14.18
2022-09-29T07:36:43.993Z,14.38
2022-09-29T07:39:12.002Z,14.58
2022-09-29T07:41:41.236Z,14.75
2022-09-29T07:44:09.049Z,14.89
2022-09-29T07:46:36.837Z,15.03
2022-09-29T07:49:05.470Z,15.14
2022-09-29T07:51:33.400Z,15.25
2022-09-29T07:54:03.934Z,15.37
2022-09-29T07:56:33.138Z,15.42
2022-09-29T07:59:04.213Z,15.51
2022-09-29T08:01:32.395Z,15.53
2022-09-29T08:04:02.022Z,15.56
2022-09-29T08:06:30.147Z,15.55
2022-09-29T08:09:04.186Z,15.51
2022-09-29T08:11:33.738Z,15.44
2022-09-29T08:14:03.909Z,15.37
2022-09-29T08:16:32.498Z,15.27
2022-09-29T08:19:00.752Z,15.19
2022-09-29T08:21:29.720Z,15.09
2022-09-29T08:23:57.598Z,15.01
2022-09-29T08:26:36.867Z,14.93
2022-09-29T08:29:15.708Z,14.87
2022-09-29T08:31:44.812Z,14.79
2022-09-29T08:34:13.399Z,14.74
2022-09-29T08:36:43.495Z,14.71
2022-09-29T08:39:11.981Z,14.70
2022-09-29T08:41:51.757Z,14.70
2022-09-29T08:44:37.737Z,14.68
2022-09-29T08:47:15.715Z,14.67
2022-09-29T08:49:47.917Z,14.65
2022-09-29T08:52:20.045Z,14.63
2022-09-29T08:54:50.562Z,14.62
2022-09-29T08:57:20.959Z,14.63
2022-09-29T08:59:54.892Z,14.63
2022-09-29T09:02:59.975Z,14.62
2022-09-29T09:05:55.566Z,14.64
2022-09-29T09:08:41.471Z,14.68
2022-09-29T09:11:27.144Z,14.72
2022-09-29T09:14:08.280Z,14.76
2022-09-29T09:16:48.812Z,14.80
2022-09-29T09:19:37.527Z,14.83
2022-09-29T09:22:15.745Z,14.85
2022-09-29T09:24:49.375Z,14.89
2022-09-29T09:27:24.550Z,14.91
2022-09-29T09:30:05.694Z,14.92
2022-09-29T09:32:43.401Z,14.95
2022-09-29T09:35:28.608Z,14.95
2022-09-29T09:38:01.498Z,14.98
2022-09-29T09:40:35.674Z,15.01
2022-09-29T09:43:10.756Z,15.06
2022-09-29T09:45:43.846Z,15.11
2022-09-29T09:48:22.718Z,15.18
2022-09-29T09:50:51.562Z,15.22
2022-09-29T09:53:25.240Z,15.32
2022-09-29T09:56:03.828Z,15.41
2022-09-29T09:59:00.947Z,15.49
2022-09-29T10:01:29.010Z,15.59
2022-09-29T10:04:00.969Z,15.70
2022-09-29T10:06:29.216Z,15.74
2022-09-29T10:08:57.093Z,15.86
2022-09-29T10:11:27.068Z,15.96
2022-09-29T10:14:01.493Z,16.05
2022-09-29T10:16:35.049Z,16.13
2022-09-29T10:19:06.327Z,16.21
2022-09-29T10:21:38.636Z,16.31
2022-09-29T10:24:09.280Z,16.34
2022-09-29T10:26:40.183Z,16.44
2022-09-29T10:29:23.385Z,16.52
2022-09-29T10:32:03.233Z,16.58
2022-09-29T10:34:34.366Z,16.64
2022-09-29T10:37:04.862Z,16.69
2022-09-29T10:39:51.035Z,16.72
2022-09-29T10:42:23.244Z,16.77
2022-09-29T10:44:53.999Z,16.80
2022-09-29T10:47:23.961Z,16.85
2022-09-29T10:50:14.281Z,16.90
2022-09-29T10:52:44.954Z,16.94
2022-09-29T10:55:19.596Z,16.99
2022-09-29T10:57:48.449Z,17.04
2022-09-29T11:00:32.217Z,17.09
2022-09-29T11:03:06.005Z,17.10
2022-09-29T11:05:36.599Z,17.13
2022-09-29T11:08:04.547Z,17.13
2022-09-29T11:10:35.481Z,17.16
2022-09-29T11:13:39.112Z,17.12
2022-09-29T11:16:15.805Z,17.18
2022-09-29T11:18:45.873Z,17.21
2022-09-29T11:21:55.064Z,17.22
2022-09-29T11:24:35.202Z,17.28
2022-09-29T11:27:14.648Z,17.32
2022-09-29T11:29:51.561Z,17.36
2022-09-29T11:32:34.653Z,17.40
2022-09-29T11:35:27.547Z,17.41
2022-09-29T11:38:09.404Z,17.38
2022-09-29T11:40:48.617Z,17.37
2022-09-29T11:43:31.960Z,17.35
2022-09-29T11:46:14.061Z,17.31
2022-09-29T11:48:56.247Z,17.26
2022-09-29T11:51:34.063Z,17.20
2022-09-29T11:54:24.105Z,17.15
2022-09-29T11:57:00.054Z,17.10
2022-09-29T11:59:46.110Z,17.05
2022-09-29T12:02:41.027Z,16.96
2022-09-29T12:05:17.729Z,16.92
2022-09-29T12:07:58.032Z,16.89
2022-09-29T12:10:53.645Z,16.80
2022-09-29T12:13:30.348Z,16.83
2022-09-29T12:16:04.261Z,16.83
2022-09-29T12:18:39.134Z,16.85
2022-09-29T12:21:12.955Z,16.88
2022-09-29T12:23:45.965Z,16.90
2022-09-29T12:26:17.839Z,16.96
2022-09-29T12:28:52.269Z,16.99
2022-09-29T12:31:25.841Z,17.06
2022-09-29T12:33:58.249Z,17.07
2022-09-29T12:36:46.734Z,17.10
2022-09-29T12:39:23.279Z,17.13
2022-09-29T12:41:57.733Z,17.13
2022-09-29T12:44:33.147Z,17.13
2022-09-29T12:47:05.680Z,17.12
2022-09-29T12:49:39.556Z,17.08
2022-09-29T12:52:14.334Z,17.08
2022-09-29T12:54:48.092Z,17.02
2022-09-29T12:57:18.184Z,16.98
2022-09-29T12:59:56.952Z,16.96
2022-09-29T13:02:48.328Z,16.91
2022-09-29T13:05:35.725Z,16.85
2022-09-29T13:08:25.684Z,16.80
2022-09-29T13:11:07.284Z,16.76
2022-09-29T13:14:03.896Z,16.67
2022-09-29T13:16:57.132Z,16.61
2022-09-29T13:19:57.421Z,16.58
2022-09-29T13:22:42.965Z,16.52
2022-09-29T13:25:22.854Z,16.48
2022-09-29T13:27:53.693Z,16.43
2022-09-29T13:30:25.544Z,16.38
2022-09-29T13:33:02.285Z,16.33
2022-09-29T13:35:30.445Z,16.29
2022-09-29T13:38:05.288Z,16.26
2022-09-29T13:40:34.072Z,16.22
2022-09-29T13:43:05.166Z,16.19
2022-09-29T13:45:44.766Z,16.18
2022-09-29T13:48:50.518Z,16.14
2022-09-29T13:51:39.898Z,16.13
2022-09-29T13:54:33.941Z,16.06
2022-09-29T13:57:25.402Z,16.07
2022-09-29T14:00:17.456Z,16.03
2022-09-29T14:02:48.598Z,16.02
2022-09-29T14:05:38.418Z,16.02
2022-09-29T14:08:19.018Z,16.01
2022-09-29T14:10:51.218Z,16.01
2022-09-29T14:13:25.681Z,16.00
2022-09-29T14:16:11.581Z,16.02
2022-09-29T14:18:43.156Z,16.02
2022-09-29T14:21:12.832Z,16.05
2022-09-29T14:23:51.776Z,16.10
2022-09-29T14:26:48.997Z,16.09
2022-09-29T14:29:21.546Z,16.12
2022-09-29T14:31:52.991Z,16.13
2022-09-29T14:34:24.500Z,16.18
2022-09-29T14:36:54.893Z,16.18
2022-09-29T14:39:27.151Z,16.18
2022-09-29T14:41:55.260Z,15.91
2022-09-29T14:44:27.024Z,16.15
2022-09-29T14:47:29.028Z,16.16
2022-09-29T14:50:33.322Z,16.14
2022-09-29T14:53:17.897Z,16.11
2022-09-29T14:56:02.535Z,16.08
2022-09-29T14:58:47.241Z,16.04
2022-09-29T15:01:26.307Z,16.02
2022-09-29T15:03:56.747Z,15.97
2022-09-29T15:06:26.674Z,15.94
2022-09-29T15:08:57.987Z,15.92
2022-09-29T15:11:34.914Z,15.89
2022-09-29T15:14:03.674Z,15.82
2022-09-29T15:16:41.170Z,15.81
2022-09-29T15:19:31.388Z,15.75
2022-09-29T15:22:13.854Z,15.71
2022-09-29T15:25:10.334Z,15.65
2022-09-29T15:27:40.847Z,15.63
2022-09-29T15:30:16.814Z,15.61
2022-09-29T15:32:48.197Z,15.56
2022-09-29T15:35:21.148Z,15.51
2022-09-29T15:37:58.110Z,15.49
2022-09-29T15:40:28.375Z,15.45
2022-09-29T15:42:57.576Z,15.41
2022-09-29T15:45:27.411Z,15.36
2022-09-29T15:48:04.930Z,15.34
2022-09-29T15:50:42.687Z,15.28
2022-09-29T15:53:12.234Z,15.24
2022-09-29T15:55:40.310Z,15.18
2022-09-29T15:58:36.852Z,15.09
2022-09-29T16:01:07.001Z,15.07
2022-09-29T16:03:41.050Z,15.06
2022-09-29T16:06:18.588Z,15.02
2022-09-29T16:08:50.233Z,14.97
2022-09-29T16:11:22.589Z,14.94
2022-09-29T16:13:56.301Z,14.88
2022-09-29T16:16:32.873Z,14.87
2022-09-29T16:19:10.659Z,14.83
2022-09-29T16:21:39.660Z,14.78
2022-09-29T16:24:13.172Z,14.76
2022-09-29T16:26:43.859Z,14.73
2022-09-29T16:29:31.031Z,14.69
2022-09-29T16:31:59.757Z,14.66
2022-09-29T16:34:33.315Z,14.66
2022-09-29T16:37:03.713Z,14.62
2022-09-29T16:39:33.917Z,14.59
2022-09-29T16:42:07.135Z,14.58
2022-09-29T16:44:43.593Z,14.55
2022-09-29T16:47:17.759Z,14.53
2022-09-29T16:49:49.465Z,14.51
2022-09-29T16:52:23.140Z,14.47
2022-09-29T16:54:52.284Z,14.43
2022-09-29T16:57:25.253Z,14.45
2022-09-29T16:59:56.783Z,14.42
2022-09-29T17:02:26.028Z,14.38
2022-09-29T17:04:54.933Z,14.35
2022-09-29T17:07:25.145Z,14.32
2022-09-29T17:09:56.028Z,14.29
2022-09-29T17:12:25.647Z,14.24
2022-09-29T17:14:55.195Z,14.20
2022-09-29T17:17:25.421Z,14.15
2022-09-29T17:19:56.284Z,14.10
2022-09-29T17:22:29.426Z,14.07
2022-09-29T17:24:58.154Z,14.02
2022-09-29T17:27:55.766Z,13.98
2022-09-29T17:30:28.404Z,13.92
2022-09-29T17:32:58.293Z,13.87
2022-09-29T17:35:29.578Z,13.84
2022-09-29T17:37:57.805Z,13.79
2022-09-29T17:40:29.092Z,13.75
2022-09-29T17:42:59.076Z,13.69
2022-09-29T17:45:32.311Z,13.65
2022-09-29T17:48:00.165Z,13.54
2022-09-29T17:50:37.547Z,13.51
2022-09-29T17:53:05.875Z,13.44
2022-09-29T17:55:34.754Z,13.39
2022-09-29T17:58:03.929Z,13.33
2022-09-29T18:00:38.288Z,13.29
2022-09-29T18:03:06.840Z,13.21
2022-09-29T18:05:34.654Z,13.16
2022-09-29T18:08:03.657Z,13.10
2022-09-29T18:10:38.920Z,13.06
2022-09-29T18:13:07.593Z,12.99
2022-09-29T18:15:38.002Z,12.96
2022-09-29T18:18:08.105Z,12.91
2022-09-29T18:20:37.055Z,12.87
2022-09-29T18:23:05.359Z,12.83
2022-09-29T18:25:34.872Z,12.80
2022-09-29T18:28:03.428Z,12.77
2022-09-29T18:30:32.866Z,12.74
2022-09-29T18:33:02.943Z,12.71
2022-09-29T18:35:34.438Z,12.68
2022-09-29T18:38:03.011Z,12.64
2022-09-29T18:40:32.380Z,12.61
2022-09-29T18:43:00.496Z,12.56
2022-09-29T18:45:29.683Z,12.54
2022-09-29T18:47:59.619Z,12.50
2022-09-29T18:50:31.749Z,12.48
2022-09-29T18:53:01.613Z,12.39
2022-09-29T18:55:31.605Z,12.38
2022-09-29T18:58:01.104Z,12.32
2022-09-29T19:00:32.149Z,12.30
2022-09-29T19:03:02.696Z,12.24
2022-09-29T19:05:34.590Z,12.22
2022-09-29T19:08:05.037Z,12.18
2022-09-29T19:10:34.438Z,12.15
2022-09-29T19:13:04.489Z,12.12
2022-09-29T19:15:35.490Z,12.09
2022-09-29T19:18:05.283Z,12.06
2022-09-29T19:20:35.012Z,12.05
2022-09-29T19:23:03.634Z,12.01
2022-09-29T19:25:33.432Z,11.99
2022-09-29T19:28:05.001Z,11.95
2022-09-29T19:30:34.517Z,11.90
2022-09-29T19:33:02.363Z,11.85
2022-09-29T19:35:30.294Z,11.82
2022-09-29T19:37:59.796Z,11.80
2022-09-29T19:40:29.977Z,11.76
2022-09-29T19:43:02.435Z,11.72
2022-09-29T19:45:30.305Z,11.68
2022-09-29T19:47:58.421Z,11.67
2022-09-29T19:50:43.942Z,11.65
2022-09-29T19:53:13.158Z,11.61
2022-09-29T19:55:42.177Z,11.59
2022-09-29T19:58:10.154Z,11.54
2022-09-29T20:00:40.717Z,11.51
2022-09-29T20:03:08.853Z,11.49
2022-09-29T20:05:37.770Z,11.47
2022-09-29T20:08:06.623Z,11.45
2022-09-29T20:10:36.349Z,11.44
2022-09-29T20:13:04.449Z,11.39
2022-09-29T20:15:32.231Z,11.38
2022-09-29T20:18:00.146Z,11.36
2022-09-29T20:20:27.946Z,11.33
2022-09-29T20:22:55.754Z,11.31
2022-09-29T20:25:23.589Z,11.28
2022-09-29T20:27:55.469Z,11.28
2022-09-29T20:30:26.218Z,11.23
2022-09-29T20:32:54.105Z,11.20
2022-09-29T20:35:21.945Z,11.18
2022-09-29T20:37:49.829Z,11.16
2022-09-29T20:40:17.781Z,11.13
2022-09-29T20:42:46.209Z,11.10
2022-09-29T20:45:16.286Z,11.08
2022-09-29T20:47:44.119Z,11.03
2022-09-29T20:50:11.964Z,10.99
2022-09-29T20:52:39.862Z,10.96
2022-09-29T20:55:08.282Z,10.93
2022-09-29T20:57:36.113Z,10.88
2022-09-29T21:00:04.742Z,10.85
2022-09-29T21:02:34.060Z,10.81
2022-09-29T21:05:01.916Z,10.78
2022-09-29T21:07:38.709Z,10.74
2022-09-29T21:10:08.370Z,10.71
2022-09-29T21:12:36.159Z,10.67
2022-09-29T21:15:04.746Z,10.66
2022-09-29T21:17:37.049Z,10.65
2022-09-29T21:20:05.238Z,10.59
2022-09-29T21:22:35.320Z,10.58
2022-09-29T21:25:03.361Z,10.57
2022-09-29T21:27:31.806Z,10.54
2022-09-29T21:29:59.597Z,10.52
2022-09-29T21:32:29.725Z,10.52
2022-09-29T21:34:59.026Z,10.51
2022-09-29T21:37:27.094Z,10.48
2022-09-29T21:39:54.910Z,10.46
2022-09-29T21:42:22.713Z,10.47
2022-09-29T21:44:52.826Z,10.45
2022-09-29T21:47:42.689Z,10.42
2022-09-29T21:50:12.190Z,10.43
2022-09-29T21:52:40.201Z,10.41
2022-09-29T21:55:09.350Z,10.39
2022-09-29T21:57:38.846Z,10.36
2022-09-29T22:00:07.536Z,10.35
2022-09-29T22:02:35.619Z,10.32
2022-09-29T22:05:03.510Z,10.29
2022-09-29T22:07:32.726Z,10.28
2022-09-29T22:10:00.548Z,10.23
2022-09-29T22:12:28.307Z,10.19
2022-09-29T22:14:57.425Z,10.16
2022-09-29T22:17:25.224Z,10.14
2022-09-29T22:19:53.002Z,10.13
2022-09-29T22:22:20.775Z,10.10
2022-09-29T22:24:50.178Z,10.09
2022-09-29T22:27:18.027Z,10.08
2022-09-29T22:29:48.564Z,10.08
2022-09-29T22:32:16.594Z,10.05
2022-09-29T22:34:44.528Z,10.04
2022-09-29T22:37:12.390Z,10.02
2022-09-29T22:39:40.232Z,10.01
2022-09-29T22:42:09.427Z,10.03
2022-09-29T22:44:37.186Z,9.98
2022-09-29T22:47:05.667Z,9.98
2022-09-29T22:49:33.458Z,9.97
2022-09-29T22:52:01.490Z,9.95
2022-09-29T22:54:29.286Z,9.93
2022-09-29T22:56:57.096Z,9.92
2022-09-29T22:59:26.468Z,9.92
2022-09-29T23:01:54.287Z,9.88
2022-09-29T23:04:22.170Z,9.86
2022-09-29T23:06:49.940Z,9.84
2022-09-29T23:09:17.834Z,9.81
2022-09-29T23:11:46.036Z,9.78
2022-09-29T23:14:15.013Z,9.76
2022-09-29T23:16:44.284Z,9.75
2022-09-29T23:19:12.278Z,9.71
2022-09-29T23:21:40.032Z,9.68
2022-09-29T23:24:08.175Z,9.65
2022-09-29T23:26:35.974Z,9.61
2022-09-29T23:29:04.837Z,9.58
2022-09-29T23:31:32.839Z,9.55
2022-09-29T23:34:02.132Z,9.52
2022-09-29T23:36:31.793Z,9.49
2022-09-29T23:39:11.206Z,9.45
2022-09-29T23:41:41.342Z,9.43
2022-09-29T23:44:09.817Z,9.41
2022-09-29T23:46:39.395Z,9.41
2022-09-29T23:49:10.467Z,9.40
2022-09-29T23:51:39.977Z,9.37
2022-09-29T23:54:08.475Z,9.35
2022-09-29T23:56:36.350Z,9.34
2022-09-29T23:59:04.930Z,9.32
